Ross, Texas
Current Conditions -  °F | °C
As of 2:55 PM on Saturday 25 Oct 2014 (Local Time) from KCNW Reporting Station
Clear Clear  
Wind Chill: 30°   Ceiling: Unl
Heat Index: 30°   Visibility: 10mi
Dew Point: 16°   Wind: 7mph
Humidity: 43%   Direction: 210°SSW
Pressure: 30.1"   Gusts: NA
Location:  31.72°N, 97.12°W
Report Text: KCNW 251955Z 21006KT 10SM SKC 30/16 A3010
Loading
Personal Weather Stations






























Interactive Weather Map
Tropical Storm Tracking
New forecast layout! Learn more

10-Day Weather Forecast

Advertisements
Track Severe Weather on mobile